Main page
METAR-TAF:

METAR-TAF

Airports :

Bandaranaike International Airport

Colombo, Sri Lanka

latitude: 07-10N, longitude: 079-53E, elevation: 8 m

Current weather observation

The report was made 29 minutes ago, at 06:10 UTC
Wind 11 kt from the West/Southwest
Temperature 29°C
Humidity 79%
Pressure 1012 hPa
Visibility 10 km or more
Broken clouds at a height of 1700 ft

METAR: VCBI 300610Z 24011KT 9999 BKN017 29/25 Q1012 NOSIG

Time: 12:09 (06:39 UTC)

Forecast

The report was made 1 hour and 39 minutes ago, at 05:00 UTC
Forecast valid from 30 at 06 UTC to 31 at 12 UTC
Wind 12 kt from the West/Southwest
Visibility 10 km or more
Scattered clouds at a height of 1800 ft
Becoming
from 30 at 13 UTC to 30 at 15 UTC
Wind 8 kt from the Southwest

TAF: VCBI 300500Z 3006/3112 25012KT 9999 SCT018 TX31/3007Z TN27/3100Z BECMG 3013/3015 23008KT

Weather observations and forecasts of more than 4000 airports (METAR and TAF reports).

The available stations are represented by yellow and red dots on the map.

Hover mouse over dot to see the name of the station.

Then click to see weather observations and forecasts.

To change the map : click on the green buttons with a black cross to zoom in, on the green button with a dash to zoom out, or on the green arrows for adjacent maps.


METAR-TAF: